createdAt,value
2023-05-13T00:00:51.715Z,9.90
2023-05-13T00:06:00.241Z,9.90
2023-05-13T00:11:08.860Z,9.80
2023-05-13T00:16:17.999Z,9.80
2023-05-13T00:21:26.686Z,9.70
2023-05-13T00:26:35.675Z,9.70
2023-05-13T00:31:44.181Z,9.60
2023-05-13T00:36:53.062Z,9.50
2023-05-13T00:42:02.153Z,9.40
2023-05-13T00:47:11.164Z,9.40
2023-05-13T00:52:19.755Z,9.20
2023-05-13T00:57:28.673Z,9.20
2023-05-13T01:02:37.485Z,9.10
2023-05-13T01:07:46.552Z,9.00
2023-05-13T01:12:54.979Z,8.90
2023-05-13T01:18:03.520Z,8.90
2023-05-13T01:23:11.892Z,8.90
2023-05-13T01:28:20.340Z,8.80
2023-05-13T01:33:29.070Z,8.60
2023-05-13T01:38:37.971Z,8.40
2023-05-13T01:43:46.783Z,8.30
2023-05-13T01:48:55.744Z,8.30
2023-05-13T01:54:04.172Z,8.30
2023-05-13T01:59:13.002Z,8.30
2023-05-13T02:04:21.455Z,8.30
2023-05-13T02:09:30.591Z,8.20
2023-05-13T02:14:39.548Z,8.10
2023-05-13T02:19:48.670Z,8.10
2023-05-13T02:24:57.516Z,8.10
2023-05-13T02:30:06.527Z,8.20
2023-05-13T02:35:17.894Z,8.20
2023-05-13T02:40:16.435Z,8.20
2023-05-13T02:45:24.883Z,8.20
2023-05-13T02:50:33.934Z,8.30
2023-05-13T02:55:42.939Z,8.30
2023-05-13T03:00:51.741Z,8.30
2023-05-13T03:05:59.997Z,8.40
2023-05-13T03:11:08.692Z,8.50
2023-05-13T03:16:17.413Z,8.60
2023-05-13T03:21:26.822Z,8.80
2023-05-13T03:26:35.098Z,9.00
2023-05-13T03:31:44.022Z,9.20
2023-05-13T03:36:52.290Z,9.40
2023-05-13T03:42:01.472Z,9.60
2023-05-13T03:47:09.892Z,9.80
2023-05-13T03:52:18.921Z,10.10
2023-05-13T03:57:27.041Z,10.50
2023-05-13T04:02:37.439Z,10.80
2023-05-13T04:07:35.835Z,11.10
2023-05-13T04:12:48.174Z,11.40
2023-05-13T04:17:46.324Z,11.80
2023-05-13T04:22:55.766Z,12.20
2023-05-13T04:28:04.250Z,12.70
2023-05-13T04:33:13.284Z,13.20
2023-05-13T04:38:21.591Z,13.60
2023-05-13T04:43:30.633Z,14.00
2023-05-13T04:48:39.579Z,14.30
2023-05-13T04:53:48.294Z,14.60
2023-05-13T04:58:57.210Z,14.90
2023-05-13T05:04:06.740Z,15.30
2023-05-13T05:09:14.941Z,15.60
2023-05-13T05:14:27.024Z,16.00
2023-05-13T05:19:25.875Z,16.40
2023-05-13T05:24:34.510Z,16.80
2023-05-13T05:29:42.998Z,17.10
2023-05-13T05:34:51.553Z,17.50
2023-05-13T05:40:00.163Z,17.80
2023-05-13T05:45:08.982Z,18.30
2023-05-13T05:50:20.829Z,18.70
2023-05-13T05:55:21.471Z,19.00
2023-05-13T06:05:29.343Z,19.80
2023-05-13T06:10:37.906Z,20.20
2023-05-13T06:15:46.954Z,20.40
2023-05-13T06:20:56.634Z,20.70
2023-05-13T06:26:05.684Z,20.90
2023-05-13T06:31:14.457Z,21.20
2023-05-13T06:36:23.725Z,21.20
2023-05-13T06:41:32.559Z,21.40
2023-05-13T06:46:41.665Z,21.60
2023-05-13T06:51:50.422Z,21.90
2023-05-13T06:56:59.198Z,22.00
2023-05-13T07:02:07.683Z,22.20
2023-05-13T07:07:16.860Z,22.50
2023-05-13T07:12:25.566Z,22.80
2023-05-13T07:17:34.657Z,23.10
2023-05-13T07:22:43.265Z,23.40
2023-05-13T07:27:52.374Z,23.70
2023-05-13T07:33:00.869Z,23.70
2023-05-13T07:38:09.760Z,23.40
2023-05-13T07:43:18.403Z,23.30
2023-05-13T07:48:27.377Z,23.60
2023-05-13T07:53:36.391Z,24.10
2023-05-13T07:58:49.205Z,24.50
2023-05-13T08:03:48.010Z,24.80
2023-05-13T08:08:56.460Z,24.80
2023-05-13T08:14:04.766Z,24.90
2023-05-13T08:19:13.545Z,25.00
2023-05-13T08:24:22.039Z,25.40
2023-05-13T08:29:31.294Z,25.70
2023-05-13T08:34:40.352Z,26.00
2023-05-13T08:39:49.669Z,26.10
2023-05-13T08:44:58.505Z,25.90
2023-05-13T08:50:07.656Z,25.60
2023-05-13T08:55:16.203Z,25.90
2023-05-13T09:00:25.016Z,25.80
2023-05-13T09:05:35.675Z,25.70
2023-05-13T09:10:42.354Z,25.50
2023-05-13T09:15:51.302Z,25.30
2023-05-13T09:21:00.509Z,25.20
2023-05-13T09:26:09.355Z,25.30
2023-05-13T09:31:18.366Z,25.60
2023-05-13T09:36:27.283Z,25.80
2023-05-13T09:41:36.194Z,26.00
2023-05-13T09:46:45.044Z,26.00
2023-05-13T09:51:54.292Z,26.10
2023-05-13T09:57:02.998Z,26.00
2023-05-13T10:02:12.596Z,25.80
2023-05-13T10:07:21.396Z,26.10
2023-05-13T10:12:30.401Z,26.00
2023-05-13T10:17:39.316Z,26.20
2023-05-13T10:22:48.671Z,26.60
2023-05-13T10:27:57.476Z,27.00
2023-05-13T10:33:06.690Z,27.00
2023-05-13T10:38:15.304Z,26.70
2023-05-13T10:43:24.471Z,25.90
2023-05-13T10:48:33.104Z,25.30
2023-05-13T10:53:42.215Z,25.50
2023-05-13T10:58:51.016Z,26.00
2023-05-13T11:04:00.298Z,26.00
2023-05-13T11:09:08.807Z,26.10
2023-05-13T11:14:18.340Z,26.30
2023-05-13T11:19:27.167Z,26.30
2023-05-13T11:24:36.468Z,26.50
2023-05-13T11:29:45.094Z,26.60
2023-05-13T11:34:53.739Z,26.90
2023-05-13T11:40:02.266Z,26.90
2023-05-13T11:45:11.620Z,27.00
2023-05-13T11:50:20.724Z,27.20
2023-05-13T11:55:30.079Z,27.20
2023-05-13T12:00:38.706Z,27.00
2023-05-13T12:05:48.317Z,27.00
2023-05-13T12:10:57.018Z,27.00
2023-05-13T12:16:05.880Z,27.00
2023-05-13T12:21:14.389Z,27.00
2023-05-13T12:26:23.628Z,27.00
2023-05-13T12:31:32.218Z,26.80
2023-05-13T12:36:41.221Z,27.10
2023-05-13T12:41:50.280Z,27.20
2023-05-13T12:46:59.863Z,27.20
2023-05-13T12:52:08.316Z,27.10
2023-05-13T12:57:16.869Z,27.30
2023-05-13T13:02:25.572Z,27.80
2023-05-13T13:07:34.623Z,28.00
2023-05-13T13:12:43.301Z,27.60
2023-05-13T13:17:52.083Z,27.20
2023-05-13T13:23:00.951Z,27.00
2023-05-13T13:28:10.356Z,26.20
2023-05-13T13:33:18.881Z,25.60
2023-05-13T13:38:27.704Z,25.30
2023-05-13T13:43:36.191Z,25.40
2023-05-13T13:48:45.419Z,26.00
2023-05-13T13:53:54.250Z,26.60
2023-05-13T13:59:03.211Z,26.40
2023-05-13T14:04:11.428Z,25.90
2023-05-13T14:09:20.404Z,25.50
2023-05-13T14:14:28.834Z,25.70
2023-05-13T14:19:37.822Z,26.20
2023-05-13T14:24:46.235Z,26.30
2023-05-13T14:29:55.298Z,26.20
2023-05-13T14:35:04.245Z,26.30
2023-05-13T14:40:13.762Z,26.40
2023-05-13T14:45:22.153Z,26.60
2023-05-13T14:50:30.945Z,26.50
2023-05-13T14:55:39.264Z,26.60
2023-05-13T15:00:49.472Z,26.90
2023-05-13T15:05:47.844Z,27.10
2023-05-13T15:10:56.439Z,27.20
2023-05-13T15:16:04.827Z,27.60
2023-05-13T15:21:13.363Z,27.60
2023-05-13T15:26:22.067Z,27.30
2023-05-13T15:31:31.341Z,27.80
2023-05-13T15:36:40.718Z,27.70
2023-05-13T15:41:49.535Z,26.70
2023-05-13T15:46:58.347Z,26.90
2023-05-13T15:52:07.370Z,28.50
2023-05-13T15:57:15.710Z,29.90
2023-05-13T16:02:25.340Z,30.20
2023-05-13T16:07:34.277Z,29.80
2023-05-13T16:12:43.102Z,30.30
2023-05-13T16:17:51.947Z,30.50
2023-05-13T16:23:00.910Z,30.50
2023-05-13T16:28:09.137Z,30.60
2023-05-13T16:33:18.990Z,30.70
2023-05-13T16:38:27.815Z,30.90
2023-05-13T16:43:36.935Z,30.90
2023-05-13T16:48:45.717Z,30.90
2023-05-13T16:53:55.171Z,30.70
2023-05-13T16:59:03.707Z,30.10
2023-05-13T17:04:12.685Z,29.90
2023-05-13T17:09:21.157Z,29.50
2023-05-13T17:14:30.845Z,29.20
2023-05-13T17:19:39.536Z,28.70
2023-05-13T17:24:48.659Z,27.90
2023-05-13T17:29:56.872Z,27.10
2023-05-13T17:35:05.697Z,26.00
2023-05-13T17:40:14.438Z,24.80
2023-05-13T17:45:23.932Z,23.60
2023-05-13T17:50:32.521Z,22.70
2023-05-13T17:55:41.365Z,22.00
2023-05-13T18:00:50.849Z,21.30
2023-05-13T18:06:00.060Z,20.80
2023-05-13T18:11:09.215Z,20.30
2023-05-13T18:16:19.436Z,19.80
2023-05-13T18:21:29.304Z,19.30
2023-05-13T18:26:28.440Z,18.90
2023-05-13T18:31:37.824Z,18.50
2023-05-13T18:41:55.464Z,17.80
2023-05-13T18:47:04.318Z,17.50
2023-05-13T18:52:12.857Z,17.20
2023-05-13T18:57:22.104Z,17.10
2023-05-13T19:02:31.879Z,16.80
2023-05-13T19:07:40.439Z,16.50
2023-05-13T19:12:49.626Z,16.30
2023-05-13T19:17:59.059Z,16.10
2023-05-13T19:23:08.153Z,15.90
2023-05-13T19:28:17.783Z,15.90
2023-05-13T19:33:26.204Z,15.80
2023-05-13T19:38:35.125Z,15.70
2023-05-13T19:43:43.980Z,15.50
2023-05-13T19:48:53.086Z,15.30
2023-05-13T19:54:01.872Z,15.20
2023-05-13T19:59:11.142Z,15.10
2023-05-13T20:04:19.974Z,15.00
2023-05-13T20:09:29.137Z,14.90
2023-05-13T20:14:37.413Z,14.70
2023-05-13T20:19:45.925Z,14.50
2023-05-13T20:24:54.751Z,14.40
2023-05-13T20:30:03.728Z,14.30
2023-05-13T20:35:12.338Z,14.20
2023-05-13T20:40:21.438Z,14.10
2023-05-13T20:45:29.617Z,14.00
2023-05-13T20:50:38.343Z,13.90
2023-05-13T20:55:47.300Z,13.70
2023-05-13T21:00:56.294Z,13.70
2023-05-13T21:06:04.718Z,13.50
2023-05-13T21:11:14.179Z,13.40
2023-05-13T21:16:23.235Z,13.20
2023-05-13T21:21:31.854Z,13.20
2023-05-13T21:26:40.788Z,13.10
2023-05-13T21:31:50.039Z,13.00
2023-05-13T21:36:58.491Z,12.90
2023-05-13T21:42:07.374Z,12.80
2023-05-13T21:47:16.026Z,12.70
2023-05-13T21:52:25.214Z,12.60
2023-05-13T21:57:33.790Z,12.50
2023-05-13T22:02:43.197Z,12.30
2023-05-13T22:07:51.562Z,12.20
2023-05-13T22:13:00.443Z,12.00
2023-05-13T22:18:09.752Z,11.90
2023-05-13T22:23:18.364Z,11.80
2023-05-13T22:28:26.409Z,11.90
2023-05-13T22:33:35.001Z,11.80
2023-05-13T22:38:43.385Z,11.80
2023-05-13T22:43:52.173Z,11.70
2023-05-13T22:49:00.683Z,11.70
2023-05-13T22:54:09.740Z,11.60
2023-05-13T22:59:18.316Z,11.50
2023-05-13T23:04:27.239Z,11.40
2023-05-13T23:09:35.932Z,11.40
2023-05-13T23:14:45.431Z,11.20
2023-05-13T23:19:54.040Z,11.20
2023-05-13T23:25:02.475Z,11.10
2023-05-13T23:30:11.131Z,11.00
2023-05-13T23:35:20.395Z,11.00
2023-05-13T23:40:29.105Z,10.80
2023-05-13T23:45:37.936Z,10.70
2023-05-13T23:50:46.822Z,10.70
2023-05-13T23:55:55.952Z,10.70
